Terminal Aerodrome Forecast
Issued by NWS Burlington, VT

Home | Current Version | Previous Version | Text Only | Print | Product List | Glossary On
Versions: 1 2 3 4 5 6 7 8 9 10 11 12 13
000
FTUS41 KBTV 220531
TAFBTV
TAF
KBTV 220531Z 2206/2306 20005KT P6SM SCT120 BKN200
     FM221200 24007KT P6SM SCT090 SCT200
     FM221500 33014G22KT P6SM SCT050 BKN080
     FM230000 32009KT P6SM SCT080=

USA.gov is the U.S. government's official web portal to all federal, state and local government web resources and services.